createdAt,value
2018-09-01T00:00:40.239Z,19.80
2018-09-01T00:03:08.801Z,19.80
2018-09-01T00:05:37.383Z,19.80
2018-09-01T00:08:05.955Z,19.80
2018-09-01T00:10:35.491Z,19.80
2018-09-01T00:13:04.039Z,19.70
2018-09-01T00:15:32.542Z,19.70
2018-09-01T00:18:01.393Z,19.70
2018-09-01T00:20:29.887Z,19.70
2018-09-01T00:22:58.373Z,19.70
2018-09-01T00:25:27.146Z,19.70
2018-09-01T00:27:55.636Z,19.70
2018-09-01T00:30:24.166Z,19.70
2018-09-01T00:32:52.781Z,19.70
2018-09-01T00:35:21.950Z,19.70
2018-09-01T00:37:55.688Z,19.70
2018-09-01T00:40:27.714Z,19.70
2018-09-01T00:42:58.182Z,19.70
2018-09-01T00:45:26.862Z,19.60
2018-09-01T00:47:55.426Z,19.70
2018-09-01T00:50:24.341Z,19.60
2018-09-01T00:52:52.853Z,19.60
2018-09-01T00:55:26.685Z,19.50
2018-09-01T00:58:20.883Z,19.50
2018-09-01T01:00:49.724Z,19.50
2018-09-01T01:03:18.247Z,19.50
2018-09-01T01:05:46.811Z,19.40
2018-09-01T01:08:15.287Z,19.40
2018-09-01T01:10:45.197Z,19.40
2018-09-01T01:13:13.676Z,19.40
2018-09-01T01:15:42.218Z,19.40
2018-09-01T01:18:10.713Z,19.40
2018-09-01T01:20:39.310Z,19.40
2018-09-01T01:23:07.791Z,19.40
2018-09-01T01:25:36.354Z,19.30
2018-09-01T01:28:05.019Z,19.30
2018-09-01T01:30:33.503Z,19.30
2018-09-01T01:33:02.016Z,19.30
2018-09-01T01:35:30.529Z,19.30
2018-09-01T01:37:59.006Z,19.30
2018-09-01T01:40:28.577Z,19.30
2018-09-01T01:42:57.704Z,19.20
2018-09-01T01:45:28.563Z,19.30
2018-09-01T01:47:58.533Z,19.20
2018-09-01T01:50:27.133Z,19.30
2018-09-01T01:52:56.683Z,19.20
2018-09-01T01:55:25.484Z,19.20
2018-09-01T01:57:54.159Z,19.10
2018-09-01T02:00:22.688Z,19.10
2018-09-01T02:02:51.158Z,19.10
2018-09-01T02:05:20.987Z,19.00
2018-09-01T02:07:50.596Z,19.00
2018-09-01T02:10:19.788Z,19.00
2018-09-01T02:12:48.305Z,19.00
2018-09-01T02:15:16.889Z,19.00
2018-09-01T02:17:45.476Z,18.90
2018-09-01T02:20:13.963Z,19.00
2018-09-01T02:22:42.523Z,19.00
2018-09-01T02:25:11.109Z,19.00
2018-09-01T02:27:39.644Z,19.00
2018-09-01T02:30:08.193Z,19.00
2018-09-01T02:32:36.924Z,19.00
2018-09-01T02:35:06.485Z,19.00
2018-09-01T02:37:35.620Z,19.00
2018-09-01T02:40:04.129Z,18.90
2018-09-01T02:42:33.370Z,18.90
2018-09-01T02:45:02.656Z,18.90
2018-09-01T02:47:31.388Z,18.90
2018-09-01T02:49:59.927Z,18.90
2018-09-01T02:52:28.429Z,18.90
2018-09-01T02:54:57.509Z,18.90
2018-09-01T02:57:26.122Z,18.90
2018-09-01T02:59:54.598Z,18.90
2018-09-01T03:02:28.297Z,18.80
2018-09-01T03:04:56.795Z,18.80
2018-09-01T03:07:25.475Z,18.80
2018-09-01T03:09:54.011Z,18.80
2018-09-01T03:12:22.553Z,18.80
2018-09-01T03:14:51.112Z,18.80
2018-09-01T03:17:19.592Z,18.70
2018-09-01T03:19:48.139Z,18.70
2018-09-01T03:22:18.311Z,18.70
2018-09-01T03:24:46.945Z,18.70
2018-09-01T03:27:15.568Z,18.70
2018-09-01T03:29:44.176Z,18.70
2018-09-01T03:32:14.096Z,18.70
2018-09-01T03:34:42.981Z,18.70
2018-09-01T03:37:11.851Z,18.70
2018-09-01T03:39:40.454Z,18.70
2018-09-01T03:42:09.109Z,18.70
2018-09-01T03:44:37.698Z,18.60
2018-09-01T03:47:06.556Z,18.60
2018-09-01T03:49:36.281Z,18.60
2018-09-01T03:52:05.099Z,18.60
2018-09-01T03:54:33.986Z,18.60
2018-09-01T03:57:02.929Z,18.50
2018-09-01T03:59:32.437Z,18.40
2018-09-01T04:02:00.984Z,18.30
2018-09-01T04:04:29.554Z,18.20
2018-09-01T04:06:58.016Z,18.10
2018-09-01T04:09:26.847Z,18.00
2018-09-01T04:11:55.345Z,17.80
2018-09-01T04:14:23.892Z,17.70
2018-09-01T04:16:52.410Z,17.70
2018-09-01T04:19:21.054Z,17.70
2018-09-01T04:21:50.506Z,17.70
2018-09-01T04:24:19.088Z,17.60
2018-09-01T04:26:47.867Z,17.60
2018-09-01T04:29:17.141Z,17.50
2018-09-01T04:31:46.891Z,17.40
2018-09-01T04:34:16.550Z,17.50
2018-09-01T04:36:45.479Z,17.50
2018-09-01T04:39:14.654Z,17.50
2018-09-01T04:41:44.498Z,17.50
2018-09-01T04:44:13.208Z,17.40
2018-09-01T04:46:42.315Z,17.40
2018-09-01T04:49:12.113Z,17.40
2018-09-01T04:51:41.273Z,17.20
2018-09-01T04:54:09.813Z,17.10
2018-09-01T04:56:38.374Z,17.10
2018-09-01T04:59:07.238Z,17.20
2018-09-01T05:01:36.800Z,17.20
2018-09-01T05:04:05.372Z,17.00
2018-09-01T05:06:33.901Z,16.90
2018-09-01T05:09:03.591Z,16.90
2018-09-01T05:11:32.108Z,16.90
2018-09-01T05:14:02.859Z,16.90
2018-09-01T05:16:32.541Z,16.90
2018-09-01T05:19:01.115Z,16.90
2018-09-01T05:21:29.626Z,16.90
2018-09-01T05:24:08.569Z,16.80
2018-09-01T05:26:37.247Z,16.80
2018-09-01T05:29:05.934Z,16.80
2018-09-01T05:31:34.534Z,16.80
2018-09-01T05:34:03.128Z,16.80
2018-09-01T05:36:32.681Z,16.80
2018-09-01T05:39:01.720Z,16.90
2018-09-01T05:41:30.950Z,16.90
2018-09-01T05:43:59.504Z,17.10
2018-09-01T05:46:28.157Z,17.20
2018-09-01T05:48:57.035Z,17.20
2018-09-01T05:51:25.565Z,17.30
2018-09-01T05:53:54.361Z,17.40
2018-09-01T05:56:23.603Z,17.50
2018-09-01T05:58:52.344Z,17.60
2018-09-01T06:01:21.813Z,17.50
2018-09-01T06:03:51.715Z,17.60
2018-09-01T06:06:20.340Z,17.60
2018-09-01T06:08:51.720Z,17.70
2018-09-01T06:11:20.310Z,17.80
2018-09-01T06:13:49.614Z,17.70
2018-09-01T06:16:18.651Z,17.70
2018-09-01T06:18:47.786Z,17.70
2018-09-01T06:21:16.388Z,17.80
2018-09-01T06:23:45.182Z,17.80
2018-09-01T06:26:15.790Z,17.80
2018-09-01T06:28:50.394Z,17.90
2018-09-01T06:31:20.030Z,17.90
2018-09-01T06:33:49.833Z,18.00
2018-09-01T06:36:19.240Z,18.10
2018-09-01T06:38:49.157Z,18.20
2018-09-01T06:41:18.009Z,18.20
2018-09-01T06:43:46.873Z,18.10
2018-09-01T06:49:02.341Z,18.00
2018-09-01T06:51:30.920Z,18.00
2018-09-01T06:53:59.441Z,18.00
2018-09-01T06:56:28.881Z,18.10
2018-09-01T06:58:57.550Z,18.20
2018-09-01T07:01:27.771Z,18.20
2018-09-01T07:03:56.596Z,18.30
2018-09-01T07:06:25.229Z,18.40
2018-09-01T07:08:53.872Z,18.40
2018-09-01T07:11:22.366Z,18.50
2018-09-01T07:13:50.984Z,18.70
2018-09-01T07:16:20.609Z,18.70
2018-09-01T07:18:50.608Z,18.80
2018-09-01T07:21:19.413Z,19.00
2018-09-01T07:23:49.072Z,19.10
2018-09-01T07:29:51.842Z,19.30
2018-09-01T07:32:20.380Z,19.40
2018-09-01T07:34:49.189Z,19.50
2018-09-01T07:37:17.925Z,19.60
2018-09-01T07:39:46.547Z,19.70
2018-09-01T07:42:15.146Z,19.50
2018-09-01T07:44:44.149Z,19.30
2018-09-01T07:47:12.900Z,19.30
2018-09-01T07:49:41.997Z,19.50
2018-09-01T07:52:13.755Z,19.80
2018-09-01T07:54:44.886Z,19.90
2018-09-01T07:57:20.560Z,20.10
2018-09-01T07:59:53.222Z,20.10
2018-09-01T08:02:24.843Z,20.00
2018-09-01T08:04:54.243Z,20.00
2018-09-01T08:07:29.132Z,20.20
2018-09-01T08:09:58.305Z,20.40
2018-09-01T08:12:28.928Z,20.50
2018-09-01T08:14:57.827Z,20.40
2018-09-01T08:17:29.730Z,20.40
2018-09-01T08:19:58.406Z,20.50
2018-09-01T08:22:29.648Z,20.60
2018-09-01T08:25:21.449Z,20.70
2018-09-01T08:27:51.050Z,20.80
2018-09-01T08:30:23.017Z,21.00
2018-09-01T08:32:53.128Z,21.00
2018-09-01T08:35:21.760Z,21.00
2018-09-01T08:38:14.712Z,21.10
2018-09-01T08:40:43.453Z,21.10
2018-09-01T08:43:38.588Z,21.20
2018-09-01T08:46:08.435Z,21.30
2018-09-01T08:48:37.602Z,21.40
2018-09-01T08:51:06.612Z,21.50
2018-09-01T08:53:35.361Z,21.50
2018-09-01T08:56:04.202Z,21.60
2018-09-01T08:58:33.074Z,21.80
2018-09-01T09:01:02.997Z,21.90
2018-09-01T09:03:31.721Z,21.90
2018-09-01T09:06:00.411Z,22.10
2018-09-01T09:08:29.834Z,22.30
2018-09-01T09:10:59.550Z,22.40
2018-09-01T09:13:48.362Z,22.40
2018-09-01T09:16:17.255Z,22.30
2018-09-01T09:18:45.967Z,22.40
2018-09-01T09:21:14.609Z,22.60
2018-09-01T09:23:55.418Z,22.60
2018-09-01T09:26:24.712Z,22.60
2018-09-01T09:28:54.142Z,22.60
2018-09-01T09:34:11.075Z,22.80
2018-09-01T09:36:40.073Z,23.00
2018-09-01T09:39:10.237Z,23.10
2018-09-01T09:41:39.113Z,23.00
2018-09-01T09:44:07.744Z,23.00
2018-09-01T09:46:36.945Z,23.10
2018-09-01T09:49:05.895Z,23.30
2018-09-01T09:51:40.126Z,23.50
2018-09-01T09:54:30.583Z,23.70
2018-09-01T09:57:04.508Z,23.70
2018-09-01T10:02:35.568Z,23.80
2018-09-01T10:05:06.168Z,23.80
2018-09-01T10:13:20.556Z,23.60
2018-09-01T10:15:57.268Z,23.40
2018-09-01T10:26:22.127Z,23.10
2018-09-01T10:28:50.783Z,22.90
2018-09-01T10:31:19.360Z,22.60
2018-09-01T10:37:19.271Z,23.10
2018-09-01T10:39:48.848Z,23.20
2018-09-01T10:42:35.203Z,23.30
2018-09-01T10:45:09.696Z,23.50
2018-09-01T10:50:41.635Z,24.50
2018-09-01T10:53:10.930Z,24.90
2018-09-01T10:55:51.580Z,24.80
2018-09-01T10:58:29.993Z,24.40
2018-09-01T11:00:58.740Z,24.10
2018-09-01T11:03:27.410Z,23.90
2018-09-01T11:06:15.888Z,24.00
2018-09-01T11:08:45.286Z,24.30
2018-09-01T11:11:14.892Z,24.50
2018-09-01T11:13:44.371Z,24.50
2018-09-01T11:16:14.135Z,24.20
2018-09-01T11:18:43.132Z,24.20
2018-09-01T11:21:13.443Z,24.10
2018-09-01T11:23:45.196Z,24.40
2018-09-01T11:26:14.196Z,25.10
2018-09-01T11:28:43.978Z,25.50
2018-09-01T11:31:12.705Z,25.60
2018-09-01T11:33:41.385Z,25.50
2018-09-01T11:36:11.048Z,25.20
2018-09-01T11:38:40.216Z,25.20
2018-09-01T11:41:08.897Z,25.20
2018-09-01T11:56:47.591Z,25.00
2018-09-01T12:04:28.642Z,25.20
2018-09-01T12:06:57.347Z,25.10
2018-09-01T12:09:56.638Z,25.00
2018-09-01T12:54:58.878Z,24.70
2018-09-01T12:57:27.500Z,25.30
2018-09-01T12:59:56.819Z,25.30
2018-09-01T13:02:26.240Z,25.30
2018-09-01T13:04:54.773Z,25.00
2018-09-01T13:07:23.318Z,24.80
2018-09-01T13:09:52.910Z,24.60
2018-09-01T13:12:21.455Z,24.70
2018-09-01T13:14:50.116Z,24.80
2018-09-01T13:17:18.614Z,25.00
2018-09-01T13:19:47.195Z,25.40
2018-09-01T13:22:15.782Z,25.60
2018-09-01T13:24:44.387Z,25.40
2018-09-01T13:27:12.876Z,25.10
2018-09-01T13:29:41.429Z,24.90
2018-09-01T13:32:10.020Z,24.90
2018-09-01T13:34:38.856Z,25.00
2018-09-01T13:37:07.388Z,25.30
2018-09-01T13:39:36.108Z,25.50
2018-09-01T13:42:11.699Z,25.70
2018-09-01T13:44:54.197Z,25.90
2018-09-01T13:47:24.275Z,25.90
2018-09-01T13:50:01.571Z,25.90
2018-09-01T13:55:46.528Z,25.60
2018-09-01T14:13:14.217Z,25.30
2018-09-01T14:15:42.697Z,25.20
2018-09-01T14:18:21.274Z,25.20
2018-09-01T14:20:54.990Z,25.30
2018-09-01T14:23:37.410Z,25.30
2018-09-01T14:29:21.244Z,25.40
2018-09-01T14:44:54.673Z,25.40
2018-09-01T14:50:22.612Z,25.10
2018-09-01T15:08:55.888Z,25.40
2018-09-01T15:11:43.867Z,25.00
2018-09-01T15:18:35.484Z,24.90
2018-09-01T15:21:05.646Z,24.70
2018-09-01T15:23:34.433Z,24.80
2018-09-01T15:26:02.923Z,24.90
2018-09-01T15:28:37.620Z,25.00
2018-09-01T15:31:08.494Z,25.20
2018-09-01T15:33:37.228Z,25.20
2018-09-01T15:36:06.016Z,25.20
2018-09-01T15:38:34.901Z,25.00
2018-09-01T15:41:04.263Z,24.90
2018-09-01T15:43:32.920Z,24.60
2018-09-01T15:46:03.950Z,24.50
2018-09-01T15:48:32.704Z,24.30
2018-09-01T15:51:01.376Z,24.30
2018-09-01T15:53:30.445Z,24.40
2018-09-01T15:56:02.596Z,24.40
2018-09-01T15:58:31.674Z,24.50
2018-09-01T16:01:07.973Z,24.60
2018-09-01T16:03:37.610Z,24.60
2018-09-01T16:06:14.500Z,24.60
2018-09-01T16:08:45.723Z,24.70
2018-09-01T16:11:14.758Z,24.80
2018-09-01T16:13:45.128Z,24.90
2018-09-01T16:16:25.115Z,24.70
2018-09-01T16:18:56.205Z,24.80
2018-09-01T16:21:25.461Z,24.80
2018-09-01T16:24:11.286Z,24.80
2018-09-01T16:26:48.341Z,24.90
2018-09-01T16:29:20.197Z,24.90
2018-09-01T16:32:03.257Z,24.90
2018-09-01T16:34:36.305Z,24.80
2018-09-01T16:55:25.321Z,24.60
2018-09-01T16:59:41.745Z,24.50
2018-09-01T18:29:21.227Z,23.00
2018-09-01T18:31:49.793Z,22.90
2018-09-01T18:34:18.354Z,22.90
2018-09-01T18:36:47.115Z,22.80
2018-09-01T19:11:56.213Z,22.60
2018-09-01T19:14:28.014Z,22.50
2018-09-01T19:17:07.686Z,22.50
2018-09-01T19:19:42.796Z,22.50
2018-09-01T19:22:19.703Z,22.50
2018-09-01T19:25:09.125Z,22.50
2018-09-01T19:54:56.404Z,22.30
2018-09-01T19:57:29.304Z,22.30
2018-09-01T19:59:58.281Z,22.20
2018-09-01T20:02:27.009Z,22.20
2018-09-01T20:04:57.707Z,22.20
2018-09-01T20:07:26.475Z,22.20
2018-09-01T20:09:55.406Z,22.20
2018-09-01T20:12:24.413Z,22.20
2018-09-01T20:14:53.150Z,22.20
2018-09-01T20:17:21.946Z,22.20
2018-09-01T20:20:14.542Z,22.20
2018-09-01T20:22:43.685Z,22.10
2018-09-01T20:25:12.506Z,22.10
2018-09-01T20:27:41.367Z,22.10
2018-09-01T20:58:00.008Z,21.70
2018-09-01T21:00:28.841Z,21.50
2018-09-01T21:04:57.580Z,21.60
2018-09-01T21:07:46.725Z,21.60
2018-09-01T21:10:15.463Z,21.50
2018-09-01T21:12:46.386Z,21.50
2018-09-01T21:15:15.097Z,21.40
2018-09-01T21:48:29.110Z,21.20
2018-09-01T21:50:59.308Z,21.10
2018-09-01T22:02:25.205Z,21.10
2018-09-01T22:04:59.161Z,21.10
2018-09-01T22:07:28.753Z,21.10
2018-09-01T22:09:57.401Z,21.10
2018-09-01T22:12:26.003Z,21.10
2018-09-01T22:14:55.036Z,21.10
2018-09-01T22:17:24.631Z,20.90
2018-09-01T22:19:53.285Z,20.90
2018-09-01T22:22:21.929Z,20.80
2018-09-01T22:24:51.436Z,20.80
2018-09-01T22:27:20.182Z,20.80
2018-09-01T22:29:48.794Z,20.80
2018-09-01T22:32:17.518Z,20.80
2018-09-01T22:34:46.379Z,20.70
2018-09-01T22:37:15.046Z,20.70
2018-09-01T22:39:43.630Z,20.70
2018-09-01T22:42:12.252Z,20.80
2018-09-01T22:44:40.908Z,20.80
2018-09-01T22:47:13.775Z,20.80
2018-09-01T22:49:42.510Z,20.80
2018-09-01T22:52:11.262Z,20.80
2018-09-01T22:54:39.858Z,20.80
2018-09-01T22:57:08.608Z,20.80
2018-09-01T22:59:37.320Z,20.80
2018-09-01T23:02:06.105Z,20.80
2018-09-01T23:04:35.994Z,20.70
2018-09-01T23:07:04.823Z,20.70
2018-09-01T23:09:34.395Z,20.70
2018-09-01T23:12:03.642Z,20.70
2018-09-01T23:14:32.878Z,20.70
2018-09-01T23:17:01.587Z,20.70
2018-09-01T23:19:30.275Z,20.70
2018-09-01T23:21:58.945Z,20.70
2018-09-01T23:24:27.600Z,20.70
2018-09-01T23:26:56.205Z,20.60
2018-09-01T23:29:24.886Z,20.60
2018-09-01T23:31:53.642Z,20.50
2018-09-01T23:34:27.041Z,20.50
2018-09-01T23:37:16.340Z,20.50
2018-09-01T23:39:45.248Z,20.50
2018-09-01T23:42:22.161Z,20.50
2018-09-01T23:44:50.838Z,20.50
2018-09-01T23:47:19.594Z,20.50
2018-09-01T23:49:48.197Z,20.50
2018-09-01T23:52:17.124Z,20.50
2018-09-01T23:54:46.041Z,20.40
2018-09-01T23:57:14.568Z,20.40
2018-09-01T23:59:43.258Z,20.40
